createdAt,value
2022-08-12T00:00:05.625Z,99879.53
2022-08-12T00:02:51.043Z,99874.88
2022-08-12T00:06:01.938Z,99872.72
2022-08-12T00:08:47.233Z,99873.16
2022-08-12T00:11:33.618Z,99879.50
2022-08-12T00:14:19.056Z,99885.00
2022-08-12T00:17:04.583Z,99878.88
2022-08-12T00:19:49.452Z,99887.91
2022-08-12T00:22:35.459Z,99884.28
2022-08-12T00:26:00.386Z,99875.22
2022-08-12T00:28:27.694Z,99879.66
2022-08-12T00:31:12.799Z,99881.75
2022-08-12T00:33:57.751Z,99888.47
2022-08-12T00:36:47.898Z,99878.88
2022-08-12T00:39:35.442Z,99880.00
2022-08-12T00:42:11.598Z,99881.19
2022-08-12T00:44:48.301Z,99885.72
2022-08-12T00:47:24.750Z,99887.53
2022-08-12T00:49:52.766Z,99881.25
2022-08-12T00:52:20.377Z,99889.41
2022-08-12T00:54:50.970Z,99887.13
2022-08-12T00:57:31.126Z,99880.97
2022-08-12T01:00:00.672Z,99878.34
2022-08-12T01:02:33.085Z,99882.94
2022-08-12T01:05:24.116Z,99884.69
2022-08-12T01:08:10.361Z,99888.66
2022-08-12T01:10:58.132Z,99880.81
2022-08-12T01:13:25.837Z,99879.13
2022-08-12T01:16:03.867Z,99875.53
2022-08-12T01:18:35.913Z,99883.56
2022-08-12T01:21:27.271Z,99883.63
2022-08-12T01:24:30.379Z,99882.91
2022-08-12T01:26:59.557Z,99885.28
2022-08-12T01:29:33.138Z,99892.63
2022-08-12T01:32:05.203Z,99886.38
2022-08-12T01:34:37.575Z,99884.72
2022-08-12T01:37:07.633Z,99880.34
2022-08-12T01:40:31.623Z,99871.53
2022-08-12T01:42:41.859Z,99876.97
2022-08-12T01:45:10.059Z,99865.31
2022-08-12T01:47:56.282Z,99865.50
2022-08-12T01:50:26.592Z,99864.03
2022-08-12T01:53:05.498Z,99869.56
2022-08-12T01:55:34.652Z,99867.16
2022-08-12T01:58:11.601Z,99862.88
2022-08-12T02:00:55.634Z,99865.66
2022-08-12T02:04:08.138Z,99866.81
2022-08-12T02:07:11.667Z,99864.28
2022-08-12T02:10:50.591Z,99862.59
2022-08-12T02:13:41.881Z,99860.03
2022-08-12T02:16:19.980Z,99858.28
2022-08-12T02:19:27.428Z,99859.22
2022-08-12T02:22:21.608Z,99849.72
2022-08-12T02:24:50.926Z,99858.09
2022-08-12T02:27:19.597Z,99850.94
2022-08-12T02:29:46.229Z,99842.13
2022-08-12T02:32:14.479Z,99847.63
2022-08-12T02:34:43.955Z,99844.94
2022-08-12T02:37:15.412Z,99840.56
2022-08-12T02:39:48.507Z,99834.41
2022-08-12T02:42:17.454Z,99839.09
2022-08-12T02:44:49.095Z,99841.72
2022-08-12T02:47:58.261Z,99838.41
2022-08-12T02:50:05.654Z,99840.56
2022-08-12T02:52:34.752Z,99836.25
2022-08-12T02:55:34.052Z,99831.81
2022-08-12T02:58:06.972Z,99832.84
2022-08-12T03:00:38.214Z,99833.56
2022-08-12T03:03:08.131Z,99830.81
2022-08-12T03:05:44.186Z,99834.38
2022-08-12T03:08:29.885Z,99830.69
2022-08-12T03:11:15.215Z,99825.41
2022-08-12T03:13:47.142Z,99834.38
2022-08-12T03:16:14.849Z,99831.94
2022-08-12T03:18:45.979Z,99831.44
2022-08-12T03:21:16.700Z,99837.19
2022-08-12T03:23:45.491Z,99843.44
2022-08-12T03:26:12.511Z,99843.56
2022-08-12T03:28:51.065Z,99851.13
2022-08-12T03:31:29.785Z,99859.84
2022-08-12T03:34:09.790Z,99860.09
2022-08-12T03:36:38.173Z,99846.84
2022-08-12T03:39:16.916Z,99850.53
2022-08-12T03:42:01.720Z,99857.69
2022-08-12T03:44:53.375Z,99855.81
2022-08-12T03:47:43.704Z,99861.13
2022-08-12T03:50:29.613Z,99863.81
2022-08-12T03:53:14.798Z,99862.78
2022-08-12T03:55:59.970Z,99860.72
2022-08-12T03:58:45.276Z,99862.28
2022-08-12T04:01:13.125Z,99869.09
2022-08-12T04:03:55.088Z,99870.63
2022-08-12T04:06:35.287Z,99878.41
2022-08-12T04:09:05.280Z,99874.72
2022-08-12T04:12:04.023Z,99873.56
2022-08-12T04:14:32.956Z,99876.88
2022-08-12T04:17:00.355Z,99879.44
2022-08-12T04:19:27.378Z,99879.44
2022-08-12T04:22:02.018Z,99881.94
2022-08-12T04:24:34.886Z,99879.09
2022-08-12T04:27:03.513Z,99882.47
2022-08-12T04:30:31.655Z,99876.88
2022-08-12T04:32:16.634Z,99873.06
2022-08-12T04:34:44.494Z,99878.97
2022-08-12T04:37:12.669Z,99880.25
2022-08-12T04:39:40.126Z,99873.69
2022-08-12T04:42:06.825Z,99870.81
2022-08-12T04:44:33.490Z,99870.72
2022-08-12T04:47:00.228Z,99873.31
2022-08-12T04:49:28.016Z,99861.53
2022-08-12T04:51:59.126Z,99862.13
2022-08-12T04:54:27.736Z,99867.28
2022-08-12T04:57:04.617Z,99864.38
2022-08-12T04:59:46.690Z,99870.28
2022-08-12T05:02:20.898Z,99879.03
2022-08-12T05:04:56.283Z,99871.47
2022-08-12T05:07:27.842Z,99876.66
2022-08-12T05:09:59.334Z,99877.22
2022-08-12T05:12:34.164Z,99880.44
2022-08-12T05:15:00.862Z,99886.31
2022-08-12T05:17:28.253Z,99876.94
2022-08-12T05:19:57.078Z,99885.38
2022-08-12T05:22:24.884Z,99876.69
2022-08-12T05:24:51.278Z,99878.41
2022-08-12T05:27:18.152Z,99877.84
2022-08-12T05:30:08.273Z,99878.41
2022-08-12T05:32:36.753Z,99876.84
2022-08-12T05:35:06.638Z,99869.91
2022-08-12T05:37:34.997Z,99870.53
2022-08-12T05:40:08.289Z,99875.59
2022-08-12T05:42:37.600Z,99871.69
2022-08-12T05:45:04.504Z,99862.88
2022-08-12T05:47:44.876Z,99872.41
2022-08-12T05:50:19.752Z,99870.78
2022-08-12T05:52:46.315Z,99869.03
2022-08-12T05:55:14.900Z,99882.78
2022-08-12T05:57:41.390Z,99872.56
2022-08-12T06:00:08.384Z,99874.41
2022-08-12T06:02:35.582Z,99876.81
2022-08-12T06:05:02.706Z,99884.72
2022-08-12T06:07:59.298Z,99878.00
2022-08-12T06:10:17.739Z,99882.63
2022-08-12T06:12:59.484Z,99883.47
2022-08-12T06:15:25.976Z,99890.44
2022-08-12T06:17:52.615Z,99878.75
2022-08-12T06:20:29.542Z,99885.16
2022-08-12T06:22:57.082Z,99889.84
2022-08-12T06:25:27.814Z,99880.84
2022-08-12T06:28:08.060Z,99879.44
2022-08-12T06:30:39.070Z,99892.44
2022-08-12T06:33:22.465Z,99893.22
2022-08-12T06:35:50.235Z,99910.06
2022-08-12T06:38:20.359Z,99899.41
2022-08-12T06:41:07.263Z,99896.22
2022-08-12T06:44:04.521Z,99894.75
2022-08-12T06:46:22.194Z,99895.94
2022-08-12T06:48:57.296Z,99890.44
2022-08-12T06:51:34.796Z,99890.78
2022-08-12T06:54:02.259Z,99890.03
2022-08-12T06:56:46.326Z,99892.75
2022-08-12T06:59:15.993Z,99895.28
2022-08-12T07:01:49.861Z,99890.66
2022-08-12T07:07:10.309Z,99887.88
2022-08-12T07:10:05.527Z,99882.66
2022-08-12T07:12:28.227Z,99890.56
2022-08-12T07:14:58.919Z,99891.72
2022-08-12T07:17:26.469Z,99897.75
2022-08-12T07:19:53.812Z,99898.47
2022-08-12T07:22:23.360Z,99898.19
2022-08-12T07:25:09.974Z,99899.19
2022-08-12T07:27:43.535Z,99906.72
2022-08-12T07:30:11.296Z,99904.31
2022-08-12T07:32:37.960Z,99914.41
2022-08-12T07:35:04.707Z,99919.88
2022-08-12T07:37:33.063Z,99925.59
2022-08-12T07:40:01.115Z,99913.94
2022-08-12T07:42:29.731Z,99910.91
2022-08-12T07:44:56.969Z,99916.47
2022-08-12T07:47:25.208Z,99914.66
2022-08-12T07:50:05.524Z,99913.16
2022-08-12T07:52:38.460Z,99908.69
2022-08-12T07:55:06.270Z,99911.53
2022-08-12T07:57:35.735Z,99910.00
2022-08-12T08:00:05.943Z,99906.28
2022-08-12T08:02:36.403Z,99901.09
2022-08-12T08:05:04.423Z,99898.44
2022-08-12T08:07:31.566Z,99911.84
2022-08-12T08:10:00.422Z,99901.19
2022-08-12T08:12:47.674Z,99902.47
2022-08-12T08:15:15.638Z,99893.19
2022-08-12T08:17:57.952Z,99903.03
2022-08-12T08:20:28.845Z,99899.88
2022-08-12T08:22:57.659Z,99901.59
2022-08-12T08:25:36.335Z,99901.22
2022-08-12T08:28:07.089Z,99906.31
2022-08-12T08:30:35.488Z,99906.06
2022-08-12T08:33:02.041Z,99896.78
2022-08-12T08:35:46.254Z,99905.59
2022-08-12T08:38:28.715Z,99892.66
2022-08-12T08:42:17.638Z,99894.97
2022-08-12T08:44:04.739Z,99886.72
2022-08-12T08:46:34.799Z,99889.06
2022-08-12T08:49:01.572Z,99892.44
2022-08-12T08:51:28.039Z,99896.63
2022-08-12T08:53:54.515Z,99889.69
2022-08-12T08:56:22.156Z,99884.09
2022-08-12T08:58:49.698Z,99888.88
2022-08-12T09:01:20.863Z,99878.22
2022-08-12T09:05:08.068Z,99879.81
2022-08-12T09:07:18.063Z,99880.03
2022-08-12T09:20:17.887Z,99881.56
2022-08-12T09:23:58.324Z,99884.03
2022-08-12T09:26:29.201Z,99879.25
2022-08-12T09:40:57.481Z,99868.50
2022-08-12T09:51:00.048Z,99864.50
2022-08-12T09:53:29.420Z,99855.00
2022-08-12T09:56:56.590Z,99856.41
2022-08-12T09:58:59.963Z,99861.59
2022-08-12T10:01:35.604Z,99851.25
2022-08-12T10:04:19.274Z,99850.56
2022-08-12T10:06:57.624Z,99840.91
2022-08-12T10:09:28.441Z,99830.88
2022-08-12T10:12:37.264Z,99839.84
2022-08-12T10:15:04.490Z,99824.97
2022-08-12T10:17:34.250Z,99834.69
2022-08-12T10:20:20.695Z,99827.75
2022-08-12T10:22:58.047Z,99829.66
2022-08-12T10:26:34.852Z,99837.78
2022-08-12T10:29:01.619Z,99827.94
2022-08-12T10:31:59.482Z,99822.41
2022-08-12T10:34:26.238Z,99803.94
2022-08-12T10:36:58.821Z,99814.28
2022-08-12T10:40:07.154Z,99818.09
2022-08-12T10:42:46.313Z,99814.97
2022-08-12T10:45:14.355Z,99814.72
2022-08-12T10:48:01.598Z,99804.94
2022-08-12T10:51:02.414Z,99798.78
2022-08-12T10:53:44.151Z,99800.22
2022-08-12T10:56:14.164Z,99807.09
2022-08-12T11:21:57.677Z,99777.22
2022-08-12T11:25:10.486Z,99777.59
2022-08-12T11:40:46.823Z,99759.94
2022-08-12T11:43:18.560Z,99764.56
2022-08-12T11:45:47.636Z,99762.59
2022-08-12T11:48:19.723Z,99763.94
2022-08-12T11:55:50.337Z,99767.13
2022-08-12T11:59:08.426Z,99760.06
2022-08-12T12:12:15.414Z,99745.16
2022-08-12T12:14:42.235Z,99737.88
2022-08-12T12:17:09.476Z,99739.34
2022-08-12T12:23:29.313Z,99738.81
2022-08-12T12:26:38.582Z,99730.53
2022-08-12T12:29:11.145Z,99727.72
2022-08-12T12:32:10.008Z,99719.34
2022-08-12T12:34:38.155Z,99724.78
2022-08-12T12:37:05.932Z,99725.91
2022-08-12T12:39:55.306Z,99718.19
2022-08-12T12:42:55.608Z,99729.91
2022-08-12T12:45:19.459Z,99720.06
2022-08-12T12:47:57.270Z,99719.03
2022-08-12T12:50:35.241Z,99721.97
2022-08-12T12:53:04.146Z,99716.25
2022-08-12T12:55:35.982Z,99709.06
2022-08-12T12:58:04.947Z,99718.97
2022-08-12T13:00:34.364Z,99709.63
2022-08-12T13:03:01.229Z,99708.28
2022-08-12T13:05:42.094Z,99713.13
2022-08-12T13:08:28.072Z,99703.16
2022-08-12T13:11:04.390Z,99702.78
2022-08-12T13:14:08.676Z,99694.31
2022-08-12T13:16:25.088Z,99684.59
2022-08-12T13:18:54.130Z,99695.50
2022-08-12T13:21:33.547Z,99693.88
2022-08-12T13:24:10.568Z,99676.78
2022-08-12T13:26:37.961Z,99675.56
2022-08-12T13:29:04.756Z,99684.94
2022-08-12T13:31:35.620Z,99677.53
2022-08-12T13:34:32.985Z,99671.91
2022-08-12T13:37:00.836Z,99662.78
2022-08-12T13:39:29.786Z,99667.19
2022-08-12T13:41:56.653Z,99673.66
2022-08-12T13:44:26.445Z,99682.44
2022-08-12T13:46:58.755Z,99671.00
2022-08-12T13:49:55.170Z,99670.03
2022-08-12T13:52:14.004Z,99663.69
2022-08-12T13:54:40.867Z,99669.22
2022-08-12T13:57:11.207Z,99663.75
2022-08-12T13:59:48.252Z,99661.31
2022-08-12T14:02:22.515Z,99653.91
2022-08-12T14:04:56.361Z,99645.38
2022-08-12T14:07:25.954Z,99649.28
2022-08-12T14:10:16.043Z,99647.94
2022-08-12T14:12:54.681Z,99647.44
2022-08-12T14:15:36.507Z,99652.41
2022-08-12T14:18:13.632Z,99648.59
2022-08-12T14:20:43.865Z,99636.59
2022-08-12T14:24:08.269Z,99636.03
2022-08-12T14:26:05.718Z,99628.03
2022-08-12T14:28:45.396Z,99630.16
2022-08-12T14:31:31.304Z,99632.19
2022-08-12T14:33:59.585Z,99632.63
2022-08-12T14:36:26.961Z,99631.41
2022-08-12T14:38:56.210Z,99632.13
2022-08-12T14:41:37.144Z,99624.00
2022-08-12T14:45:00.103Z,99628.19
2022-08-12T14:47:01.290Z,99630.91
2022-08-12T14:50:37.106Z,99619.72
2022-08-12T14:53:45.878Z,99617.44
2022-08-12T14:57:58.338Z,99626.41
2022-08-12T15:00:52.311Z,99619.84
2022-08-12T15:03:21.926Z,99609.88
2022-08-12T15:06:06.225Z,99600.84
2022-08-12T15:08:41.642Z,99605.69
2022-08-12T15:11:14.231Z,99599.06
2022-08-12T15:13:45.514Z,99598.72
2022-08-12T15:16:13.197Z,99597.69
2022-08-12T15:18:55.470Z,99599.25
2022-08-12T15:22:37.556Z,99595.16
2022-08-12T15:24:22.113Z,99587.03
2022-08-12T15:26:51.259Z,99591.28
2022-08-12T15:29:19.531Z,99586.00
2022-08-12T15:32:00.171Z,99594.69
2022-08-12T15:34:30.868Z,99592.56
2022-08-12T15:36:57.824Z,99587.53
2022-08-12T15:43:35.419Z,99583.91
2022-08-12T15:46:06.663Z,99589.06
2022-08-12T15:48:46.860Z,99586.78
2022-08-12T15:51:58.889Z,99584.47
2022-08-12T16:17:18.699Z,99581.38
2022-08-12T16:20:03.198Z,99577.72
2022-08-12T16:26:15.152Z,99573.63
2022-08-12T16:29:23.758Z,99571.06
2022-08-12T16:32:58.389Z,99573.25
2022-08-12T16:35:25.517Z,99571.41
2022-08-12T16:38:25.240Z,99576.19
2022-08-12T16:40:50.473Z,99574.56
2022-08-12T16:43:28.973Z,99566.72
2022-08-12T16:46:58.570Z,99577.56
2022-08-12T16:49:26.375Z,99570.25
2022-08-12T16:56:29.057Z,99562.13
2022-08-12T16:59:00.680Z,99563.03
2022-08-12T17:01:33.371Z,99563.53
2022-08-12T17:04:08.685Z,99556.50
2022-08-12T17:06:47.037Z,99549.28
2022-08-12T17:09:19.012Z,99545.19
2022-08-12T17:11:56.915Z,99545.88
2022-08-12T17:14:24.877Z,99540.50
2022-08-12T17:17:26.268Z,99544.16
2022-08-12T17:20:35.293Z,99529.16
2022-08-12T17:22:53.331Z,99530.56
2022-08-12T17:25:23.382Z,99535.59
2022-08-12T17:27:57.762Z,99526.78
2022-08-12T17:30:27.761Z,99527.47
2022-08-12T17:32:56.977Z,99530.44
2022-08-12T17:38:38.324Z,99531.28
2022-08-12T17:41:08.093Z,99534.38
2022-08-12T17:43:58.289Z,99537.66
2022-08-12T17:46:40.551Z,99540.19
2022-08-12T17:49:19.213Z,99540.88
2022-08-12T17:51:50.421Z,99545.13
2022-08-12T17:54:39.924Z,99546.69
2022-08-12T17:57:16.491Z,99549.56
2022-08-12T18:00:14.188Z,99549.13
2022-08-12T18:02:51.906Z,99554.88
2022-08-12T18:05:19.094Z,99554.59
2022-08-12T18:07:49.762Z,99563.47
2022-08-12T18:10:44.139Z,99559.28
2022-08-12T18:13:40.758Z,99563.31
2022-08-12T18:16:23.231Z,99565.28
2022-08-12T18:18:51.373Z,99565.66
2022-08-12T18:21:25.984Z,99566.38
2022-08-12T18:24:19.774Z,99573.47
2022-08-12T18:26:56.634Z,99573.81
2022-08-12T18:29:27.128Z,99575.41
2022-08-12T18:32:53.932Z,99583.38
2022-08-12T18:35:10.625Z,99579.28
2022-08-12T18:38:02.340Z,99587.00
2022-08-12T18:40:49.267Z,99582.72
2022-08-12T18:43:19.759Z,99589.28
2022-08-12T18:45:56.836Z,99593.91
2022-08-12T18:48:24.828Z,99586.75
2022-08-12T18:51:09.586Z,99591.50
2022-08-12T18:54:05.538Z,99590.66
2022-08-12T18:56:50.227Z,99599.03
2022-08-12T18:59:59.841Z,99598.91
2022-08-12T19:02:19.687Z,99594.59
2022-08-12T19:04:53.154Z,99601.06
2022-08-12T19:07:24.755Z,99606.41
2022-08-12T19:09:58.781Z,99606.38
2022-08-12T19:12:57.442Z,99606.34
2022-08-12T19:15:26.538Z,99601.13
2022-08-12T19:18:01.254Z,99601.00
2022-08-12T19:20:36.497Z,99602.72
2022-08-12T19:23:08.267Z,99608.16
2022-08-12T19:26:01.354Z,99615.31
2022-08-12T19:28:38.445Z,99616.44
2022-08-12T19:31:58.112Z,99615.47
2022-08-12T19:38:04.236Z,99613.78
2022-08-12T19:40:20.014Z,99614.84
2022-08-12T19:42:57.394Z,99610.59
2022-08-12T19:45:41.911Z,99617.13
2022-08-12T19:48:20.266Z,99611.16
2022-08-12T19:50:52.759Z,99607.84
2022-08-12T19:53:24.273Z,99609.16
2022-08-12T19:55:53.441Z,99614.53
2022-08-12T19:58:21.678Z,99610.72
2022-08-12T20:00:56.289Z,99609.50
2022-08-12T20:03:38.819Z,99618.56
2022-08-12T20:06:13.480Z,99610.03
2022-08-12T20:08:45.487Z,99613.28
2022-08-12T20:12:14.234Z,99612.03
2022-08-12T20:14:06.215Z,99612.53
2022-08-12T20:19:52.911Z,99617.09
2022-08-12T20:22:31.606Z,99619.47
2022-08-12T20:25:09.442Z,99613.63
2022-08-12T20:28:05.038Z,99625.91
2022-08-12T20:30:37.759Z,99615.16
2022-08-12T20:33:23.365Z,99625.03
2022-08-12T20:36:14.153Z,99612.78
2022-08-12T20:38:47.628Z,99616.34
2022-08-12T20:41:17.626Z,99613.00
2022-08-12T20:43:49.394Z,99615.41
2022-08-12T20:46:19.180Z,99610.03
2022-08-12T20:48:55.259Z,99609.41
2022-08-12T20:51:27.362Z,99620.63
2022-08-12T20:53:59.657Z,99623.94
2022-08-12T20:56:37.734Z,99619.72
2022-08-12T20:59:20.312Z,99624.66
2022-08-12T21:01:53.844Z,99619.53
2022-08-12T21:04:43.779Z,99622.06
2022-08-12T21:07:13.715Z,99624.16
2022-08-12T21:09:47.638Z,99611.75
2022-08-12T21:12:31.031Z,99614.81
2022-08-12T21:15:24.048Z,99617.72
2022-08-12T21:18:10.976Z,99619.84
2022-08-12T21:20:52.686Z,99621.00
2022-08-12T21:23:21.648Z,99622.88
2022-08-12T21:25:53.906Z,99618.31
2022-08-12T21:28:21.238Z,99619.19
2022-08-12T21:31:10.729Z,99619.19
2022-08-12T21:33:58.309Z,99620.38
2022-08-12T21:36:35.024Z,99622.28
2022-08-12T21:39:18.691Z,99625.75
2022-08-12T21:41:53.177Z,99617.84
2022-08-12T21:44:24.592Z,99620.34
2022-08-12T21:47:20.839Z,99617.41
2022-08-12T21:50:02.958Z,99623.59
2022-08-12T21:52:42.496Z,99617.06
2022-08-12T21:55:18.474Z,99620.59
2022-08-12T21:57:54.680Z,99621.25
2022-08-12T22:00:36.757Z,99624.59
2022-08-12T22:04:01.779Z,99617.84
2022-08-12T22:06:31.418Z,99623.59
2022-08-12T22:09:16.299Z,99627.16
2022-08-12T22:11:58.713Z,99628.91
2022-08-12T22:14:30.162Z,99630.53
2022-08-12T22:17:05.283Z,99634.88
2022-08-12T22:19:34.923Z,99627.94
2022-08-12T22:22:04.722Z,99625.22
2022-08-12T22:24:36.112Z,99630.75
2022-08-12T22:27:31.929Z,99630.53
2022-08-12T22:30:16.969Z,99629.66
2022-08-12T22:32:51.267Z,99637.88
2022-08-12T22:35:56.050Z,99632.66
2022-08-12T22:38:26.647Z,99628.06
2022-08-12T22:41:00.678Z,99638.41
2022-08-12T22:43:59.717Z,99634.16
2022-08-12T22:46:32.942Z,99631.34
2022-08-12T22:48:59.465Z,99627.78
2022-08-12T22:51:26.482Z,99622.25
2022-08-12T22:53:56.103Z,99627.47
2022-08-12T22:56:30.874Z,99626.41
2022-08-12T22:59:02.673Z,99631.84
2022-08-12T23:01:52.430Z,99626.59
2022-08-12T23:04:27.741Z,99624.84
2022-08-12T23:06:58.336Z,99617.13
2022-08-12T23:09:44.942Z,99625.53
2022-08-12T23:12:34.917Z,99624.00
2022-08-12T23:15:07.873Z,99621.59
2022-08-12T23:17:40.659Z,99617.25
2022-08-12T23:20:11.044Z,99620.16
2022-08-12T23:22:40.431Z,99620.28
2022-08-12T23:25:19.098Z,99614.84
2022-08-12T23:28:06.441Z,99619.28
2022-08-12T23:31:04.214Z,99615.81
2022-08-12T23:34:02.395Z,99611.38
2022-08-12T23:36:39.442Z,99614.25
2022-08-12T23:40:13.864Z,99616.97
2022-08-12T23:42:16.708Z,99616.09
2022-08-12T23:44:43.974Z,99612.59
2022-08-12T23:47:11.725Z,99619.38
2022-08-12T23:49:57.327Z,99613.38
2022-08-12T23:52:28.578Z,99611.84
2022-08-12T23:55:23.227Z,99612.03
2022-08-12T23:58:17.772Z,99615.72
